Casselton, ND

10:15 PM CDT on September 20, 2014 (GMT -0500)
Mhd's Co-op Observer | Change Station
CLOSE
Current Station
Personal Weather Station
Location: N Moorhead, MN
Elevation: 890 ft
Nearby Weather Stations

Elev 890 ft 46.89 °N, 96.75 °W | Updated 20 seconds ago

Mostly Cloudy
Mostly Cloudy
55.9 °F
Feels Like 55.9 °F
N
0.0
Wind Variable Wind from North
Gusts 0.0 mph

Today
High -- | Low -- °F
--% Chance of Precip.
Yesterday
High -- | Low -- °F
Precip. -- in
7:13 AM 7:30 PM
Waning Crescent, 9% visible
Pressure 29.92 in
Visibility 10.0 miles
Clouds Mostly Cloudy 10000 ft
Dew Point 50 °F
Humidity 79%
Rainfall 0.07 in
Snow Depth Not available.
UV 0 out of 12
Pollen 3.50 out of 12
Air Quality Not available.
Flu Activity Not available.
METAR KFAR 210253Z 34004KT 10SM BKN100 13/10 A2992 RMK AO2 RAB19E30 SLP132 P0000 60000 T01330100 52025

More Conditions Fewer Conditions

Pressure 29.92 in
Visibility 10.0 miles
Clouds Mostly Cloudy 10000 ft
Dew Point 50 °F
Humidity 79%
Rainfall 0.07 in
Snow Depth Not available.
UV 0 out of 12
Pollen 3.50 out of 12
Air Quality Not available.
Flu Activity Not available.
METAR KFAR 210253Z 34004KT 10SM BKN100 13/10 A2992 RMK AO2 RAB19E30 SLP132 P0000 60000 T01330100 52025

More Conditions Fewer Conditions

10-Day Weather Forecast

Almanac

Astronomy

Sep. 20, 2014 Rise Set
Actual Time 7:13 AM CDT 7:30 PM CDT
Civil Twilight 6:42 AM CDT 8:00 PM CDT
Nautical Twilight 6:06 AM CDT 8:36 PM CDT
Astronomical Twilight 5:29 AM CDT 9:13 PM CDT
Moon 3:43 AM CDT (9/20) 5:43 PM CDT (9/20)
Length of Visible Light 13h 18m
Length of Day
12h 17m
Tomorrow will be 3m 20s shorter.
Waning Crescent, 9% of the Moon is Illuminated
Today
Waning Crescent
Sep 24
New
Oct 1
First Quarter
Oct 8
Full
Oct 15
Last Quarter

Today's Extremes

State Highs State Lows

Community

WunderPhotos

Upload Photos

1,755,068 photos uploaded!

WunderBlogs® & News

Nearby

Snow Depth

Station Depth Elevation
No new snow has been reported.

Earthquake Activity

City Distance Mag. Time & Date
No recent earthquake activity has been reported nearby.
Minimum magnitude displayed is 2.5.

Coastal Water Temperatures

Place Temperature
No Stations Reporting

Nearby Weather Stations